createdAt,value
2023-04-30T00:02:01.374Z,44.52
2023-04-30T00:04:27.945Z,44.62
2023-04-30T00:06:54.387Z,44.54
2023-04-30T00:09:20.789Z,44.77
2023-04-30T00:11:47.362Z,44.77
2023-04-30T00:14:15.707Z,44.66
2023-04-30T00:16:42.090Z,44.86
2023-04-30T00:19:09.273Z,44.52
2023-04-30T00:21:37.262Z,44.53
2023-04-30T00:24:04.162Z,44.80
2023-04-30T00:26:30.579Z,44.74
2023-04-30T00:28:57.038Z,44.93
2023-04-30T00:31:23.478Z,44.99
2023-04-30T00:33:50.756Z,45.46
2023-04-30T00:36:17.058Z,44.94
2023-04-30T00:38:43.493Z,45.54
2023-04-30T00:41:11.581Z,45.09
2023-04-30T00:43:39.587Z,45.42
2023-04-30T00:46:06.769Z,45.20
2023-04-30T00:48:36.099Z,45.52
2023-04-30T00:51:04.136Z,45.79
2023-04-30T00:53:31.792Z,45.78
2023-04-30T00:55:59.178Z,45.54
2023-04-30T00:58:26.668Z,45.66
2023-04-30T01:00:53.361Z,45.45
2023-04-30T01:03:20.492Z,45.63
2023-04-30T01:05:46.951Z,45.72
2023-04-30T01:08:13.627Z,45.95
2023-04-30T01:10:56.338Z,46.28
2023-04-30T01:13:27.284Z,45.78
2023-04-30T01:16:03.947Z,46.14
2023-04-30T01:19:09.522Z,46.50
2023-04-30T01:21:41.460Z,45.84
2023-04-30T01:24:14.113Z,46.28
2023-04-30T01:26:59.069Z,45.70
2023-04-30T01:29:27.313Z,45.36
2023-04-30T01:31:53.704Z,45.74
2023-04-30T01:34:20.174Z,45.65
2023-04-30T01:37:05.182Z,45.86
2023-04-30T01:39:56.650Z,46.58
2023-04-30T01:42:33.486Z,45.92
2023-04-30T01:45:28.718Z,46.84
2023-04-30T01:48:27.974Z,46.47
2023-04-30T01:51:22.155Z,46.77
2023-04-30T01:53:49.226Z,45.84
2023-04-30T01:56:25.882Z,45.91
2023-04-30T01:58:53.586Z,46.26
2023-04-30T02:01:27.710Z,46.35
2023-04-30T02:03:54.622Z,46.09
2023-04-30T02:06:21.416Z,45.89
2023-04-30T02:08:49.256Z,45.94
2023-04-30T02:11:16.238Z,45.70
2023-04-30T02:13:42.846Z,46.28
2023-04-30T02:16:09.460Z,45.77
2023-04-30T02:18:36.434Z,46.23
2023-04-30T02:21:02.778Z,46.29
2023-04-30T02:23:29.462Z,46.43
2023-04-30T02:25:55.806Z,46.35
2023-04-30T02:28:22.261Z,46.32
2023-04-30T02:30:48.670Z,45.78
2023-04-30T02:33:15.061Z,46.48
2023-04-30T02:35:41.684Z,46.23
2023-04-30T02:38:08.053Z,46.30
2023-04-30T02:40:34.400Z,46.28
2023-04-30T02:43:01.467Z,46.48
2023-04-30T02:45:27.851Z,45.69
2023-04-30T02:47:54.545Z,46.74
2023-04-30T02:50:20.941Z,45.82
2023-04-30T02:52:47.335Z,46.41
2023-04-30T02:55:13.784Z,45.81
2023-04-30T02:57:40.513Z,46.39
2023-04-30T03:00:07.718Z,46.44
2023-04-30T03:02:34.257Z,46.00
2023-04-30T03:05:00.692Z,46.06
2023-04-30T03:07:27.077Z,45.82
2023-04-30T03:09:53.755Z,46.88
2023-04-30T03:12:20.387Z,46.54
2023-04-30T03:14:46.806Z,46.16
2023-04-30T03:17:13.439Z,46.86
2023-04-30T03:19:39.839Z,46.25
2023-04-30T03:22:06.208Z,46.57
2023-04-30T03:24:32.585Z,46.30
2023-04-30T03:26:59.324Z,46.67
2023-04-30T03:29:25.645Z,46.13
2023-04-30T03:31:52.628Z,46.56
2023-04-30T03:34:19.184Z,46.68
2023-04-30T03:36:45.496Z,46.08
2023-04-30T03:39:12.212Z,46.59
2023-04-30T03:41:38.595Z,46.62
2023-04-30T03:44:05.508Z,46.65
2023-04-30T03:46:31.942Z,46.23
2023-04-30T03:48:58.349Z,46.30
2023-04-30T03:51:24.782Z,46.38
2023-04-30T03:53:51.432Z,46.68
2023-04-30T03:56:17.783Z,46.08
2023-04-30T03:58:44.385Z,46.67
2023-04-30T04:01:10.993Z,47.04
2023-04-30T04:03:37.571Z,47.00
2023-04-30T04:06:05.485Z,46.77
2023-04-30T04:08:32.814Z,46.64
2023-04-30T04:10:59.857Z,46.44
2023-04-30T04:13:26.212Z,47.05
2023-04-30T04:15:52.861Z,47.01
2023-04-30T04:18:19.350Z,47.26
2023-04-30T04:20:45.938Z,46.84
2023-04-30T04:23:12.412Z,47.59
2023-04-30T04:25:39.386Z,47.06
2023-04-30T04:28:05.939Z,47.35
2023-04-30T04:30:32.334Z,47.90
2023-04-30T04:32:58.968Z,47.87
2023-04-30T04:35:25.750Z,47.60
2023-04-30T04:37:52.338Z,47.63
2023-04-30T04:40:19.018Z,47.51
2023-04-30T04:42:45.400Z,47.94
2023-04-30T04:45:12.144Z,47.77
2023-04-30T04:47:38.921Z,47.35
2023-04-30T04:50:06.790Z,46.89
2023-04-30T04:52:33.345Z,47.21
2023-04-30T04:54:59.705Z,47.76
2023-04-30T04:57:26.403Z,47.28
2023-04-30T04:59:53.294Z,47.53
2023-04-30T05:02:20.141Z,47.88
2023-04-30T05:04:47.283Z,47.44
2023-04-30T05:07:13.679Z,47.17
2023-04-30T05:09:40.060Z,46.96
2023-04-30T05:12:06.802Z,46.99
2023-04-30T05:14:33.198Z,47.65
2023-04-30T05:16:59.589Z,48.05
2023-04-30T05:19:26.115Z,48.34
2023-04-30T05:21:52.692Z,47.90
2023-04-30T05:24:19.455Z,47.99
2023-04-30T05:26:46.087Z,47.84
2023-04-30T05:29:12.531Z,48.00
2023-04-30T05:31:40.156Z,47.96
2023-04-30T05:34:06.590Z,48.62
2023-04-30T05:36:32.941Z,47.46
2023-04-30T05:38:59.393Z,47.75
2023-04-30T05:41:25.863Z,48.17
2023-04-30T05:43:52.239Z,47.60
2023-04-30T05:46:18.806Z,47.70
2023-04-30T05:48:45.515Z,48.03
2023-04-30T05:51:11.823Z,48.29
2023-04-30T05:53:38.425Z,48.12
2023-04-30T05:56:04.901Z,47.57
2023-04-30T05:58:31.313Z,47.72
2023-04-30T06:00:59.177Z,47.63
2023-04-30T06:03:25.730Z,48.08
2023-04-30T06:05:52.443Z,47.61
2023-04-30T06:08:19.093Z,47.88
2023-04-30T06:10:45.633Z,48.40
2023-04-30T06:13:12.285Z,47.62
2023-04-30T06:15:38.889Z,47.62
2023-04-30T06:18:05.573Z,48.47
2023-04-30T06:20:32.306Z,48.00
2023-04-30T06:22:59.939Z,47.82
2023-04-30T06:25:26.452Z,48.09
2023-04-30T06:27:54.204Z,47.83
2023-04-30T06:30:21.188Z,48.35
2023-04-30T06:32:47.606Z,48.10
2023-04-30T06:35:14.369Z,48.51
2023-04-30T06:37:40.925Z,48.58
2023-04-30T06:40:08.040Z,48.41
2023-04-30T06:42:35.249Z,48.58
2023-04-30T06:45:02.658Z,48.67
2023-04-30T06:47:34.450Z,48.43
2023-04-30T06:50:01.539Z,48.36
2023-04-30T06:52:28.502Z,48.70
2023-04-30T06:54:54.883Z,48.41
2023-04-30T06:57:21.471Z,48.04
2023-04-30T06:59:48.218Z,48.08
2023-04-30T07:02:14.974Z,48.29
2023-04-30T07:04:41.346Z,48.20
2023-04-30T07:07:07.919Z,48.13
2023-04-30T07:09:34.212Z,48.09
2023-04-30T07:12:01.080Z,48.46
2023-04-30T07:14:27.664Z,48.06
2023-04-30T07:16:54.243Z,47.63
2023-04-30T07:19:20.870Z,47.57
2023-04-30T07:21:47.487Z,47.40
2023-04-30T07:24:13.841Z,47.10
2023-04-30T07:26:40.284Z,47.14
2023-04-30T07:29:06.665Z,47.06
2023-04-30T07:31:34.114Z,47.31
2023-04-30T07:34:00.614Z,47.54
2023-04-30T07:36:28.652Z,47.16
2023-04-30T07:38:55.054Z,47.29
2023-04-30T07:41:21.811Z,46.73
2023-04-30T07:43:48.202Z,47.19
2023-04-30T07:46:14.684Z,46.53
2023-04-30T07:48:41.186Z,46.33
2023-04-30T07:51:07.560Z,46.68
2023-04-30T07:53:34.088Z,47.01
2023-04-30T07:56:00.963Z,46.42
2023-04-30T07:58:27.334Z,45.63
2023-04-30T08:00:53.893Z,45.30
2023-04-30T08:03:20.475Z,45.31
2023-04-30T08:05:47.351Z,44.58
2023-04-30T08:08:13.712Z,44.96
2023-04-30T08:10:42.054Z,45.13
2023-04-30T08:13:08.429Z,44.71
2023-04-30T08:15:34.817Z,44.05
2023-04-30T08:18:02.588Z,44.07
2023-04-30T08:20:29.383Z,43.46
2023-04-30T08:22:55.974Z,43.61
2023-04-30T08:25:22.531Z,42.96
2023-04-30T08:27:48.915Z,43.25
2023-04-30T08:30:15.358Z,43.12
2023-04-30T08:32:41.954Z,42.68
2023-04-30T08:35:09.216Z,42.22
2023-04-30T08:37:35.738Z,41.72
2023-04-30T08:40:02.401Z,41.63
2023-04-30T08:42:35.175Z,40.70
2023-04-30T08:45:03.264Z,41.33
2023-04-30T08:47:30.498Z,41.43
2023-04-30T08:49:56.997Z,41.32
2023-04-30T08:52:25.163Z,40.71
2023-04-30T08:54:54.124Z,40.60
2023-04-30T08:57:20.779Z,40.20
2023-04-30T08:59:47.729Z,40.33
2023-04-30T09:02:14.457Z,40.18
2023-04-30T09:04:40.907Z,40.13
2023-04-30T09:07:09.462Z,40.15
2023-04-30T09:09:39.287Z,39.59
2023-04-30T09:12:18.870Z,39.15
2023-04-30T09:15:02.502Z,38.81
2023-04-30T09:17:30.249Z,40.20
2023-04-30T09:20:10.910Z,38.60
2023-04-30T09:22:39.475Z,39.12
2023-04-30T09:25:07.215Z,40.21
2023-04-30T09:27:33.682Z,39.55
2023-04-30T09:30:01.104Z,39.28
2023-04-30T09:32:27.582Z,39.26
2023-04-30T09:34:55.190Z,39.27
2023-04-30T09:37:21.608Z,39.10
2023-04-30T09:39:55.248Z,39.12
2023-04-30T09:42:22.338Z,39.04
2023-04-30T09:44:48.984Z,38.89
2023-04-30T09:47:20.870Z,38.67
2023-04-30T09:49:48.366Z,39.10
2023-04-30T09:52:16.117Z,38.81
2023-04-30T09:54:44.108Z,38.65
2023-04-30T09:57:13.463Z,38.47
2023-04-30T09:59:44.086Z,38.10
2023-04-30T10:02:13.471Z,38.49
2023-04-30T10:04:44.544Z,38.72
2023-04-30T10:07:11.617Z,38.68
2023-04-30T10:09:43.227Z,38.67
2023-04-30T10:12:20.598Z,38.38
2023-04-30T10:14:55.545Z,38.49
2023-04-30T10:17:26.898Z,39.08
2023-04-30T10:20:01.199Z,38.86
2023-04-30T10:22:29.036Z,39.04
2023-04-30T10:24:55.832Z,39.18
2023-04-30T10:27:22.349Z,39.14
2023-04-30T10:29:52.194Z,38.86
2023-04-30T10:32:20.341Z,38.79
2023-04-30T10:35:35.370Z,38.70
2023-04-30T10:38:12.899Z,38.34
2023-04-30T10:40:39.564Z,38.67
2023-04-30T10:43:06.664Z,38.83
2023-04-30T10:45:38.140Z,38.79
2023-04-30T10:48:07.493Z,38.33
2023-04-30T10:50:40.766Z,37.95
2023-04-30T10:53:12.347Z,38.79
2023-04-30T10:55:59.733Z,37.96
2023-04-30T10:58:34.764Z,38.24
2023-04-30T11:01:15.939Z,37.70
2023-04-30T11:03:43.875Z,38.30
2023-04-30T11:06:15.068Z,37.58
2023-04-30T11:08:46.181Z,37.81
2023-04-30T11:11:20.954Z,37.37
2023-04-30T11:13:57.797Z,37.79
2023-04-30T11:16:30.781Z,37.68
2023-04-30T11:19:13.205Z,37.39
2023-04-30T11:22:04.413Z,37.75
2023-04-30T11:24:58.864Z,37.64
2023-04-30T11:27:30.460Z,37.55
2023-04-30T11:29:59.233Z,37.41
2023-04-30T11:32:33.852Z,37.21
2023-04-30T11:35:05.152Z,37.78
2023-04-30T11:37:36.484Z,38.05
2023-04-30T11:40:08.754Z,37.71
2023-04-30T11:42:35.255Z,37.58
2023-04-30T11:45:10.165Z,37.00
2023-04-30T11:47:50.422Z,37.19
2023-04-30T11:50:27.553Z,36.70
2023-04-30T11:52:54.913Z,37.00
2023-04-30T11:55:24.412Z,37.24
2023-04-30T11:57:54.550Z,37.23
2023-04-30T12:00:31.670Z,36.70
2023-04-30T12:03:01.285Z,36.95
2023-04-30T12:05:28.409Z,36.90
2023-04-30T12:08:01.142Z,36.58
2023-04-30T12:10:27.536Z,36.97
2023-04-30T12:12:54.811Z,36.74
2023-04-30T12:15:26.721Z,36.77
2023-04-30T12:17:57.814Z,36.74
2023-04-30T12:20:26.384Z,36.57
2023-04-30T12:22:52.601Z,37.25
2023-04-30T12:25:21.272Z,36.63
2023-04-30T12:27:49.482Z,36.67
2023-04-30T12:30:20.141Z,36.36
2023-04-30T12:32:50.430Z,35.99
2023-04-30T12:35:19.020Z,36.08
2023-04-30T12:37:46.099Z,36.48
2023-04-30T12:40:14.484Z,36.24
2023-04-30T12:42:44.101Z,35.48
2023-04-30T12:45:11.355Z,36.08
2023-04-30T12:47:42.368Z,35.99
2023-04-30T12:50:15.055Z,35.50
2023-04-30T12:52:41.447Z,35.75
2023-04-30T12:55:21.194Z,35.13
2023-04-30T12:58:09.237Z,35.43
2023-04-30T13:00:49.832Z,35.10
2023-04-30T13:03:19.173Z,35.68
2023-04-30T13:05:50.873Z,35.05
2023-04-30T13:08:18.806Z,35.60
2023-04-30T13:10:46.858Z,35.33
2023-04-30T13:13:15.536Z,35.15
2023-04-30T13:15:45.301Z,34.53
2023-04-30T13:18:12.219Z,35.08
2023-04-30T13:20:39.192Z,34.85
2023-04-30T13:23:06.622Z,35.28
2023-04-30T13:25:34.087Z,34.68
2023-04-30T13:28:00.584Z,34.66
2023-04-30T13:30:27.198Z,34.53
2023-04-30T13:32:54.320Z,34.21
2023-04-30T13:35:20.825Z,34.62
2023-04-30T13:37:52.356Z,34.64
2023-04-30T13:40:19.620Z,34.36
2023-04-30T13:42:47.624Z,34.51
2023-04-30T13:45:14.174Z,34.38
2023-04-30T13:47:41.017Z,34.45
2023-04-30T13:50:08.838Z,34.31
2023-04-30T13:52:35.248Z,34.49
2023-04-30T13:55:02.259Z,33.86
2023-04-30T13:57:29.972Z,34.25
2023-04-30T13:59:57.091Z,34.02
2023-04-30T14:02:23.999Z,33.96
2023-04-30T14:05:04.645Z,33.93
2023-04-30T14:07:32.864Z,34.17
2023-04-30T14:09:59.771Z,33.49
2023-04-30T14:12:26.265Z,33.71
2023-04-30T14:14:52.913Z,33.88
2023-04-30T14:17:19.533Z,33.96
2023-04-30T14:19:46.104Z,33.73
2023-04-30T14:22:12.542Z,33.64
2023-04-30T14:24:38.973Z,33.33
2023-04-30T14:27:06.039Z,33.36
2023-04-30T14:29:32.629Z,33.49
2023-04-30T14:31:59.061Z,33.46
2023-04-30T14:34:25.855Z,33.16
2023-04-30T14:36:52.338Z,33.29
2023-04-30T14:39:18.671Z,32.72
2023-04-30T14:41:45.128Z,32.67
2023-04-30T14:44:11.717Z,32.71
2023-04-30T14:46:38.300Z,32.77
2023-04-30T14:49:04.849Z,32.74
2023-04-30T14:51:32.417Z,32.57
2023-04-30T14:53:59.369Z,32.59
2023-04-30T14:56:25.834Z,32.37
2023-04-30T14:58:52.190Z,31.99
2023-04-30T15:01:18.884Z,31.97
2023-04-30T15:03:46.082Z,31.78
2023-04-30T15:06:13.919Z,31.93
2023-04-30T15:08:40.833Z,31.90
2023-04-30T15:11:09.681Z,31.77
2023-04-30T15:13:39.854Z,31.26
2023-04-30T15:16:07.009Z,31.61
2023-04-30T15:18:33.933Z,31.85
2023-04-30T15:21:00.812Z,31.66
2023-04-30T15:23:27.374Z,31.28
2023-04-30T15:25:53.797Z,31.68
2023-04-30T15:28:20.761Z,31.33
2023-04-30T15:30:47.081Z,31.48
2023-04-30T15:33:13.751Z,31.59
2023-04-30T15:35:40.640Z,31.21
2023-04-30T15:38:07.150Z,31.02
2023-04-30T15:40:33.924Z,30.85
2023-04-30T15:43:00.455Z,31.07
2023-04-30T15:45:27.970Z,31.02
2023-04-30T15:47:54.406Z,31.59
2023-04-30T15:50:22.289Z,31.26
2023-04-30T15:52:48.703Z,31.14
2023-04-30T15:55:15.074Z,31.05
2023-04-30T15:57:41.404Z,30.67
2023-04-30T16:00:08.970Z,30.95
2023-04-30T16:02:36.033Z,30.81
2023-04-30T16:05:02.515Z,30.67
2023-04-30T16:07:31.766Z,30.69
2023-04-30T16:09:59.997Z,30.90
2023-04-30T16:12:26.990Z,30.99
2023-04-30T16:14:53.912Z,30.61
2023-04-30T16:17:21.225Z,30.91
2023-04-30T16:19:47.552Z,30.48
2023-04-30T16:22:14.246Z,30.33
2023-04-30T16:24:41.249Z,30.51
2023-04-30T16:27:08.336Z,30.37
2023-04-30T16:29:34.713Z,30.32
2023-04-30T16:32:01.188Z,30.44
2023-04-30T16:34:27.848Z,30.68
2023-04-30T16:36:54.196Z,30.58
2023-04-30T16:39:20.540Z,30.27
2023-04-30T16:41:47.435Z,30.22
2023-04-30T16:44:13.773Z,30.60
2023-04-30T16:46:40.488Z,30.52
2023-04-30T16:49:07.000Z,30.56
2023-04-30T16:51:33.678Z,30.46
2023-04-30T16:54:00.001Z,30.42
2023-04-30T16:56:26.543Z,30.31
2023-04-30T16:58:52.929Z,30.24
2023-04-30T17:01:19.619Z,30.24
2023-04-30T17:03:46.675Z,30.26
2023-04-30T17:06:14.229Z,30.49
2023-04-30T17:08:41.111Z,30.48
2023-04-30T17:11:07.828Z,30.65
2023-04-30T17:13:34.257Z,30.42
2023-04-30T17:16:02.011Z,30.63
2023-04-30T17:18:28.486Z,30.78
2023-04-30T17:20:55.095Z,30.76
2023-04-30T17:23:21.657Z,30.76
2023-04-30T17:25:48.006Z,30.67
2023-04-30T17:28:14.302Z,31.07
2023-04-30T17:30:41.915Z,30.75
2023-04-30T17:33:08.625Z,30.93
2023-04-30T17:35:35.116Z,30.78
2023-04-30T17:38:03.867Z,30.75
2023-04-30T17:40:31.615Z,31.24
2023-04-30T17:42:58.195Z,30.82
2023-04-30T17:45:26.676Z,31.10
2023-04-30T17:47:53.236Z,30.94
2023-04-30T17:50:19.626Z,31.16
2023-04-30T17:52:46.874Z,31.25
2023-04-30T17:55:13.921Z,31.27
2023-04-30T17:57:40.520Z,31.10
2023-04-30T18:00:08.143Z,31.30
2023-04-30T18:02:34.626Z,31.38
2023-04-30T18:05:01.102Z,31.48
2023-04-30T18:07:27.742Z,31.32
2023-04-30T18:09:54.824Z,31.08
2023-04-30T18:12:21.560Z,30.95
2023-04-30T18:14:48.265Z,31.04
2023-04-30T18:17:15.442Z,30.89
2023-04-30T18:19:46.326Z,30.78
2023-04-30T18:22:12.807Z,31.03
2023-04-30T18:24:39.560Z,30.86
2023-04-30T18:27:06.906Z,31.14
2023-04-30T18:29:33.428Z,30.95
2023-04-30T18:31:59.923Z,31.29
2023-04-30T18:34:28.206Z,31.30
2023-04-30T18:36:55.167Z,31.64
2023-04-30T18:39:22.494Z,31.33
2023-04-30T18:41:49.428Z,31.37
2023-04-30T18:44:16.638Z,31.55
2023-04-30T18:46:43.082Z,31.34
2023-04-30T18:49:09.644Z,31.41
2023-04-30T18:51:36.033Z,31.66
2023-04-30T18:54:02.725Z,31.46
2023-04-30T18:56:29.226Z,31.94
2023-04-30T18:58:55.883Z,31.70
2023-04-30T19:01:24.600Z,31.72
2023-04-30T19:03:51.245Z,31.82
2023-04-30T19:06:18.091Z,32.04
2023-04-30T19:08:46.502Z,31.77
2023-04-30T19:11:14.019Z,31.70
2023-04-30T19:13:41.926Z,32.01
2023-04-30T19:16:08.536Z,32.23
2023-04-30T19:18:35.124Z,32.03
2023-04-30T19:21:02.438Z,32.16
2023-04-30T19:23:32.385Z,32.20
2023-04-30T19:26:00.200Z,32.28
2023-04-30T19:28:26.755Z,32.28
2023-04-30T19:30:54.522Z,32.48
2023-04-30T19:33:22.310Z,32.48
2023-04-30T19:35:50.324Z,32.51
2023-04-30T19:38:17.264Z,32.65
2023-04-30T19:40:52.026Z,32.67
2023-04-30T19:43:19.470Z,32.78
2023-04-30T19:45:54.192Z,32.96
2023-04-30T19:48:21.958Z,33.08
2023-04-30T19:50:49.581Z,33.14
2023-04-30T19:53:17.148Z,33.13
2023-04-30T19:55:43.911Z,33.22
2023-04-30T19:58:10.616Z,33.39
2023-04-30T20:00:38.483Z,33.37
2023-04-30T20:03:05.356Z,33.50
2023-04-30T20:05:32.245Z,33.65
2023-04-30T20:07:59.586Z,33.47
2023-04-30T20:10:26.020Z,33.78
2023-04-30T20:12:53.420Z,33.77
2023-04-30T20:15:21.569Z,33.79
2023-04-30T20:17:51.827Z,33.77
2023-04-30T20:20:19.989Z,33.88
2023-04-30T20:22:50.206Z,33.92
2023-04-30T20:25:16.821Z,33.84
2023-04-30T20:27:43.846Z,34.11
2023-04-30T20:30:12.233Z,33.91
2023-04-30T20:32:39.900Z,34.22
2023-04-30T20:35:07.628Z,34.30
2023-04-30T20:37:34.774Z,34.29
2023-04-30T20:40:01.683Z,34.46
2023-04-30T20:42:28.035Z,34.34
2023-04-30T20:44:55.205Z,34.57
2023-04-30T20:47:22.569Z,34.94
2023-04-30T20:49:48.972Z,34.58
2023-04-30T20:52:15.389Z,34.71
2023-04-30T20:54:41.936Z,34.80
2023-04-30T20:57:08.883Z,34.67
2023-04-30T20:59:36.029Z,35.04
2023-04-30T21:02:04.400Z,34.85
2023-04-30T21:04:31.199Z,34.87
2023-04-30T21:06:57.653Z,35.14
2023-04-30T21:09:23.976Z,35.04
2023-04-30T21:11:50.367Z,35.15
2023-04-30T21:14:17.739Z,34.97
2023-04-30T21:16:44.896Z,35.09
2023-04-30T21:19:11.425Z,35.14
2023-04-30T21:21:37.782Z,35.20
2023-04-30T21:24:05.119Z,35.35
2023-04-30T21:26:31.755Z,35.18
2023-04-30T21:28:58.107Z,35.24
2023-04-30T21:31:25.506Z,35.37
2023-04-30T21:33:52.117Z,35.57
2023-04-30T21:36:18.874Z,35.91
2023-04-30T21:38:45.264Z,35.79
2023-04-30T21:41:16.135Z,35.55
2023-04-30T21:43:43.560Z,36.07
2023-04-30T21:46:11.165Z,35.88
2023-04-30T21:48:38.359Z,36.27
2023-04-30T21:51:12.614Z,36.51
2023-04-30T21:53:39.434Z,36.22
2023-04-30T21:56:08.315Z,36.22
2023-04-30T21:58:35.616Z,36.26
2023-04-30T22:01:04.241Z,36.34
2023-04-30T22:03:34.884Z,36.50
2023-04-30T22:06:01.545Z,35.99
2023-04-30T22:08:28.221Z,36.39
2023-04-30T22:11:00.121Z,36.59
2023-04-30T22:13:29.552Z,36.70
2023-04-30T22:15:56.762Z,36.58
2023-04-30T22:18:24.294Z,36.34
2023-04-30T22:20:53.140Z,36.25
2023-04-30T22:23:21.169Z,36.35
2023-04-30T22:25:48.249Z,36.54
2023-04-30T22:28:19.287Z,36.10
2023-04-30T22:30:46.347Z,36.26
2023-04-30T22:33:12.789Z,36.00
2023-04-30T22:35:39.272Z,36.30
2023-04-30T22:38:07.162Z,35.89
2023-04-30T22:40:35.192Z,36.09
2023-04-30T22:43:02.228Z,35.73
2023-04-30T22:45:30.205Z,35.64
2023-04-30T22:47:59.480Z,36.05
2023-04-30T22:50:27.267Z,35.82
2023-04-30T22:52:54.478Z,35.84
2023-04-30T22:55:20.944Z,35.73
2023-04-30T22:57:47.517Z,36.18
2023-04-30T23:00:14.412Z,35.63
2023-04-30T23:02:40.816Z,35.98
2023-04-30T23:05:08.007Z,35.64
2023-04-30T23:07:34.363Z,35.82
2023-04-30T23:10:01.016Z,35.78
2023-04-30T23:12:27.770Z,35.89
2023-04-30T23:14:54.271Z,35.68
2023-04-30T23:17:20.904Z,35.56
2023-04-30T23:19:47.531Z,36.09
2023-04-30T23:22:13.886Z,35.80
2023-04-30T23:24:41.329Z,36.15
2023-04-30T23:27:08.306Z,36.20
2023-04-30T23:29:36.519Z,36.35
2023-04-30T23:32:04.283Z,35.87
2023-04-30T23:34:30.853Z,36.10
2023-04-30T23:36:57.719Z,35.70
2023-04-30T23:39:24.722Z,36.22
2023-04-30T23:41:53.624Z,36.17
2023-04-30T23:44:20.845Z,36.38
2023-04-30T23:46:48.053Z,36.37
2023-04-30T23:49:16.429Z,35.96
2023-04-30T23:51:42.869Z,35.99
2023-04-30T23:54:09.297Z,36.46
2023-04-30T23:56:37.417Z,36.35
2023-04-30T23:59:04.007Z,36.33
